TimeAKST,TemperatureF,Dew PointF,Humidity,Sea Level PressureIn,VisibilityMPH,Wind Direction,Wind SpeedMPH,Gust SpeedMPH,PrecipitationIn,Events,Conditions,WindDirDegrees,DateUTC
12:53 AM,35.1,28.0,76,29.63,10.0,Calm,Calm,-,N/A,,Clear,0,2014-01-07 09:53:00
1:53 AM,35.1,28.9,78,29.63,10.0,Calm,Calm,-,N/A,,Mostly Cloudy,0,2014-01-07 10:53:00
3:53 AM,36.0,30.0,79,29.61,10.0,Calm,Calm,-,N/A,,Overcast,0,2014-01-07 12:53:00
4:53 AM,37.9,32.0,79,29.59,10.0,Calm,Calm,-,N/A,,Mostly Cloudy,0,2014-01-07 13:53:00
5:53 AM,37.0,30.0,76,29.56,10.0,Calm,Calm,-,N/A,,Mostly Cloudy,0,2014-01-07 14:53:00
6:53 AM,36.0,28.9,76,29.54,10.0,Calm,Calm,-,N/A,,Partly Cloudy,0,2014-01-07 15:53:00
7:53 AM,35.1,28.9,78,29.54,10.0,Calm,Calm,-,N/A,,Scattered Clouds,0,2014-01-07 16:53:00
8:53 AM,36.0,30.0,79,29.53,10.0,NNE,3.5,-,N/A,,Overcast,30,2014-01-07 17:53:00
9:53 AM,37.0,30.0,76,29.52,10.0,Calm,Calm,-,N/A,,Mostly Cloudy,0,2014-01-07 18:53:00
10:53 AM,36.0,30.0,79,29.51,10.0,Calm,Calm,-,N/A,,Overcast,0,2014-01-07 19:53:00
11:53 AM,37.9,30.0,73,29.50,10.0,NNE,3.5,-,N/A,,Mostly Cloudy,20,2014-01-07 20:53:00
12:53 PM,39.9,30.9,70,29.48,10.0,ENE,3.5,-,N/A,,Overcast,70,2014-01-07 21:53:00
1:53 PM,39.9,30.9,70,29.47,10.0,Calm,Calm,-,N/A,,Overcast,0,2014-01-07 22:53:00
2:53 PM,41.0,30.9,67,29.45,10.0,NNE,3.5,-,N/A,,Overcast,20,2014-01-07 23:53:00
3:53 PM,39.0,30.9,73,29.44,10.0,Calm,Calm,-,N/A,,Mostly Cloudy,0,2014-01-08 00:53:00
4:53 PM,41.0,28.9,62,29.43,10.0,Calm,Calm,-,N/A,,Mostly Cloudy,0,2014-01-08 01:53:00
5:53 PM,41.0,30.0,65,29.42,10.0,Calm,Calm,-,N/A,,Overcast,0,2014-01-08 02:53:00
6:53 PM,39.9,30.0,68,29.39,10.0,Calm,Calm,-,N/A,,Overcast,0,2014-01-08 03:53:00
7:53 PM,37.9,30.0,73,29.37,10.0,Calm,Calm,-,N/A,,Overcast,0,2014-01-08 04:53:00
8:53 PM,42.1,27.0,55,29.35,10.0,East,10.4,-,N/A,,Overcast,80,2014-01-08 05:53:00
9:53 PM,42.1,26.1,53,29.33,10.0,NE,6.9,-,N/A,,Scattered Clouds,50,2014-01-08 06:53:00
10:53 PM,41.0,27.0,57,29.31,10.0,ENE,6.9,-,N/A,,Partly Cloudy,60,2014-01-08 07:53:00
11:53 PM,42.1,28.9,60,29.31,10.0,East,9.2,-,N/A,,Partly Cloudy,80,2014-01-08 08:53:00